Time;durP1;ratioP1;P1;durP2;ratioP2;P2;SDS_P1;SDS_P2;PMS_P1;PMS_P2;Temp;Humidity;BMP_temperature;BMP_pressure;BME280_temperature;BME280_humidity;BME280_pressure;Samples;Min_cycle;Max_cycle;Signal;HPM_P1;HPM_P2
2022/02/15 00:02:29;;;;;;;4.78;2.00;;;6.60;99.90;;;;;;12607592;28;20084;-37
2022/02/15 00:08:31;;;;;;;6.32;1.70;;;6.60;99.90;;;;;;12607676;28;20044;-37
2022/02/15 00:14:33;;;;;;;6.75;1.75;;;6.50;99.90;;;;;;12605033;28;20059;-42
2022/02/15 00:20:35;;;;;;;11.45;1.95;;;6.60;99.90;;;;;;12607268;28;20062;-40
2022/02/15 00:26:37;;;;;;;5.20;1.83;;;6.50;99.90;;;;;;12607060;28;20044;-42
2022/02/15 00:32:41;;;;;;;8.90;2.08;;;6.60;99.90;;;;;;12607245;28;20112;-37
2022/02/15 00:38:42;;;;;;;5.20;1.80;;;6.50;99.90;;;;;;12608531;28;20048;-37
2022/02/15 00:44:44;;;;;;;7.28;1.92;;;6.50;99.90;;;;;;12604452;28;20056;-40
2022/02/15 00:50:46;;;;;;;7.60;1.60;;;6.40;99.90;;;;;;12607832;28;20056;-37
2022/02/15 00:56:48;;;;;;;6.20;1.77;;;6.40;99.90;;;;;;12606493;28;20388;-40
2022/02/15 01:02:50;;;;;;;12.35;2.28;;;6.40;99.90;;;;;;12607151;28;20051;-36
2022/02/15 01:08:52;;;;;;;10.35;2.20;;;6.40;99.90;;;;;;12614314;28;20051;-41
2022/02/15 01:14:57;;;;;;;7.45;2.17;;;6.40;99.90;;;;;;12614653;28;20052;-40
2022/02/15 01:20:59;;;;;;;6.70;2.55;;;6.40;99.90;;;;;;12614345;28;20048;-42
2022/02/15 01:27:01;;;;;;;7.35;2.28;;;6.30;99.90;;;;;;12615630;28;20052;-40
2022/02/15 01:33:03;;;;;;;7.25;2.78;;;6.30;99.90;;;;;;12612292;28;20549;-40
2022/02/15 01:39:05;;;;;;;11.00;2.85;;;6.50;99.90;;;;;;12614234;28;20048;-40
2022/02/15 01:45:12;;;;;;;10.40;2.88;;;6.70;99.90;;;;;;12614925;28;20164;-37
2022/02/15 01:51:16;;;;;;;7.10;3.20;;;6.60;99.90;;;;;;12590909;28;20044;-40
2022/02/15 01:57:18;;;;;;;10.38;3.55;;;6.60;99.90;;;;;;12613697;28;20048;-36
2022/02/15 02:03:20;;;;;;;10.43;4.22;;;6.60;99.90;;;;;;12612553;28;20044;-40
2022/02/15 02:09:22;;;;;;;12.30;5.50;;;6.70;99.90;;;;;;12612450;28;20044;-40
2022/02/15 02:15:25;;;;;;;11.13;4.95;;;6.60;99.90;;;;;;12613239;28;20206;-40
2022/02/15 02:21:37;;;;;;;9.85;5.68;;;6.50;99.90;;;;;;12609472;28;20052;-40
2022/02/15 02:27:39;;;;;;;9.57;5.38;;;6.50;99.90;;;;;;12610253;28;20092;-40
2022/02/15 02:33:41;;;;;;;11.98;5.45;;;6.50;99.90;;;;;;12612220;28;20071;-41
2022/02/15 02:39:45;;;;;;;13.50;5.40;;;6.50;99.90;;;;;;12592956;28;20052;-38
2022/02/15 02:45:47;;;;;;;11.88;6.20;;;6.50;99.90;;;;;;12609515;28;20084;-40
2022/02/15 02:51:49;;;;;;;11.25;5.95;;;6.50;99.90;;;;;;12610787;28;20056;-40
2022/02/15 02:57:53;;;;;;;11.00;5.63;;;6.50;99.90;;;;;;12611988;28;20127;-40
2022/02/15 03:03:55;;;;;;;10.93;5.82;;;6.50;99.90;;;;;;12611600;28;20048;-37
2022/02/15 03:09:57;;;;;;;11.52;6.30;;;6.40;99.90;;;;;;12607149;28;20066;-37
2022/02/15 03:16:00;;;;;;;10.77;6.35;;;6.30;99.90;;;;;;12605770;28;20151;-37
2022/02/15 03:22:02;;;;;;;13.02;6.70;;;6.30;99.90;;;;;;12606044;28;20078;-40
2022/02/15 03:28:04;;;;;;;13.00;7.07;;;6.40;99.90;;;;;;12604538;28;20050;-37
2022/02/15 03:34:06;;;;;;;13.75;7.18;;;6.50;99.90;;;;;;12606571;28;20117;-40
2022/02/15 03:40:09;;;;;;;15.75;7.05;;;6.60;99.90;;;;;;12602890;28;20491;-37
2022/02/15 03:46:10;;;;;;;11.18;7.38;;;6.50;99.90;;;;;;12604337;28;20105;-37
2022/02/15 03:52:12;;;;;;;12.85;6.78;;;6.50;99.90;;;;;;12601764;28;20050;-36
2022/02/15 03:58:15;;;;;;;14.00;7.40;;;6.50;99.90;;;;;;12602310;28;20043;-40
2022/02/15 04:04:17;;;;;;;17.05;7.97;;;6.50;99.90;;;;;;12604396;28;20048;-42
2022/02/15 04:10:19;;;;;;;12.88;8.13;;;6.50;99.90;;;;;;12609457;28;20476;-37
2022/02/15 04:16:21;;;;;;;11.85;8.40;;;6.50;99.90;;;;;;12608517;28;20079;-37
2022/02/15 04:22:24;;;;;;;13.40;8.60;;;6.50;99.90;;;;;;12567842;28;1140289;-40
2022/02/15 04:28:26;;;;;;;11.75;8.32;;;6.50;99.90;;;;;;12610714;28;20538;-40
2022/02/15 04:34:28;;;;;;;13.38;7.85;;;6.50;99.90;;;;;;12607010;28;20074;-40
2022/02/15 04:40:30;;;;;;;15.95;7.80;;;6.50;99.90;;;;;;12591659;28;20053;-41
2022/02/15 04:46:32;;;;;;;12.93;8.00;;;6.50;99.90;;;;;;12617551;28;20059;-42
2022/02/15 04:52:34;;;;;;;16.05;7.80;;;6.50;99.90;;;;;;12618396;28;20537;-40
2022/02/15 04:58:36;;;;;;;11.00;8.00;;;6.50;99.90;;;;;;12615205;28;20081;-41
2022/02/15 05:04:49;;;;;;;12.05;8.30;;;6.50;99.90;;;;;;12618979;28;20056;-40
2022/02/15 05:10:51;;;;;;;14.13;8.03;;;6.60;99.90;;;;;;12618492;28;20116;-40
2022/02/15 05:16:53;;;;;;;10.95;7.63;;;6.50;99.90;;;;;;12590850;28;20127;-38
2022/02/15 05:22:55;;;;;;;13.63;7.68;;;6.50;99.90;;;;;;12616626;28;20052;-40
2022/02/15 05:28:57;;;;;;;10.15;5.75;;;6.50;99.90;;;;;;12614703;28;20056;-40
2022/02/15 05:34:59;;;;;;;12.23;6.93;;;6.50;99.90;;;;;;12615518;28;20047;-40
2022/02/15 05:41:01;;;;;;;13.95;7.47;;;6.50;99.90;;;;;;12614709;28;20117;-36
2022/02/15 05:47:04;;;;;;;10.50;6.75;;;6.40;99.90;;;;;;12618261;28;20040;-40
2022/02/15 05:53:05;;;;;;;9.27;6.57;;;6.40;99.90;;;;;;12613885;28;20060;-38
2022/02/15 05:59:07;;;;;;;10.27;6.15;;;6.30;99.90;;;;;;12614952;28;20148;-36
2022/02/15 06:05:09;;;;;;;11.02;6.63;;;6.30;99.90;;;;;;12611004;28;20044;-42
2022/02/15 06:11:12;;;;;;;10.90;7.05;;;6.20;99.90;;;;;;12613574;28;20056;-39
2022/02/15 06:17:13;;;;;;;12.75;8.43;;;6.00;99.90;;;;;;12614009;28;20496;-36
2022/02/15 06:23:15;;;;;;;11.88;7.20;;;5.90;99.90;;;;;;12611049;28;20352;-40
2022/02/15 06:29:17;;;;;;;12.60;8.10;;;5.80;99.90;;;;;;12614241;28;20052;-41
2022/02/15 06:35:20;;;;;;;11.60;7.43;;;5.80;99.90;;;;;;12604358;28;20050;-37
2022/02/15 06:41:23;;;;;;;10.88;7.53;;;5.80;99.90;;;;;;12604127;28;20090;-41
2022/02/15 06:47:25;;;;;;;13.02;8.40;;;5.90;99.90;;;;;;12602944;28;20044;-37
2022/02/15 06:53:27;;;;;;;12.50;8.20;;;5.90;99.90;;;;;;12609305;28;20090;-37
2022/02/15 06:59:45;;;;;;;13.75;7.90;;;5.90;99.90;;;;;;12610036;28;20100;-40
2022/02/15 07:05:47;;;;;;;14.80;8.70;;;5.90;99.90;;;;;;12609486;28;20064;-40
2022/02/15 07:11:48;;;;;;;14.15;8.85;;;5.90;99.90;;;;;;12607837;28;20047;-40
2022/02/15 07:17:51;;;;;;;12.95;8.40;;;5.90;99.90;;;;;;12602288;28;20040;-39
2022/02/15 07:23:54;;;;;;;15.63;8.80;;;5.90;99.90;;;;;;12586376;28;20159;-37
2022/02/15 07:29:56;;;;;;;12.55;8.55;;;5.90;99.90;;;;;;12604707;28;20130;-36
2022/02/15 07:35:58;;;;;;;18.70;9.23;;;5.90;99.90;;;;;;12609328;28;20044;-37
2022/02/15 07:42:00;;;;;;;14.38;8.23;;;5.90;99.90;;;;;;12586140;28;20044;-37
2022/02/15 07:48:04;;;;;;;13.30;8.00;;;6.00;99.90;;;;;;12605201;28;20506;-40
2022/02/15 07:54:07;;;;;;;13.15;7.75;;;6.00;99.90;;;;;;12599602;28;20096;-40
2022/02/15 08:00:09;;;;;;;13.98;8.40;;;6.10;99.90;;;;;;12610938;28;21200;-40
2022/02/15 08:06:11;;;;;;;19.33;9.40;;;6.20;99.90;;;;;;12604384;28;20052;-40
2022/02/15 08:12:17;;;;;;;17.05;8.95;;;6.20;99.90;;;;;;12601652;28;20058;-40
2022/02/15 08:18:19;;;;;;;15.40;8.98;;;6.20;99.90;;;;;;12610849;28;20044;-41
2022/02/15 08:24:22;;;;;;;13.15;8.38;;;6.20;99.90;;;;;;12618186;28;20100;-37
2022/02/15 08:30:24;;;;;;;16.00;9.40;;;6.20;99.90;;;;;;12613836;28;20052;-40
2022/02/15 08:36:26;;;;;;;12.70;8.30;;;6.20;99.90;;;;;;12598473;28;20054;-40
2022/02/15 08:42:28;;;;;;;13.50;7.93;;;6.20;99.90;;;;;;12616586;28;20581;-37
2022/02/15 08:48:30;;;;;;;12.38;7.90;;;6.20;99.90;;;;;;12620134;28;20055;-40
2022/02/15 08:54:32;;;;;;;13.65;8.15;;;6.30;99.90;;;;;;12618832;28;20488;-40
2022/02/15 09:00:36;;;;;;;15.13;9.07;;;6.40;99.90;;;;;;12615276;28;20048;-40
2022/02/15 09:06:40;;;;;;;18.03;9.97;;;6.40;99.90;;;;;;12593676;28;20072;-37
2022/02/15 09:12:42;;;;;;;;;;;6.40;99.90;;;;;;12607914;28;20097;-40
2022/02/15 09:18:44;;;;;;;22.00;13.23;;;6.40;99.90;;;;;;12609701;28;20516;-40
2022/02/15 09:24:47;;;;;;;22.25;13.85;;;6.40;99.90;;;;;;12611561;28;20163;-40
2022/02/15 09:30:54;;;;;;;27.88;15.10;;;6.30;99.90;;;;;;12612642;28;20079;-37
2022/02/15 09:36:56;;;;;;;22.95;15.30;;;6.20;99.90;;;;;;12599293;28;20705;-40
2022/02/15 09:42:58;;;;;;;29.15;18.17;;;6.30;99.90;;;;;;12612597;28;20047;-40
2022/02/15 09:49:02;;;;;;;28.75;19.42;;;6.40;99.90;;;;;;12610638;28;20090;-37
2022/02/15 09:55:05;;;;;;;28.53;19.27;;;6.60;99.90;;;;;;12609052;28;20052;-40
2022/02/15 10:01:11;;;;;;;27.15;18.85;;;6.80;99.90;;;;;;12607916;28;20065;-40
2022/02/15 10:07:14;;;;;;;28.08;18.63;;;6.90;99.90;;;;;;12616048;28;20139;-40
2022/02/15 10:13:16;;;;;;;28.65;18.80;;;7.00;99.90;;;;;;12618522;28;20120;-40
2022/02/15 10:19:30;;;;;;;28.85;18.48;;;7.10;99.90;;;;;;12613347;28;20304;-40
2022/02/15 10:25:35;;;;;;;28.83;18.58;;;7.20;99.90;;;;;;12614554;28;20090;-40
2022/02/15 10:31:41;;;;;;;28.65;18.38;;;7.20;99.90;;;;;;12611984;28;20167;-40
2022/02/15 10:37:43;;;;;;;30.05;19.30;;;7.20;99.90;;;;;;12588523;28;20480;-40
2022/02/15 10:43:49;;;;;;;30.92;19.33;;;7.30;99.90;;;;;;12612117;28;20055;-40
2022/02/15 10:50:03;;;;;;;31.48;18.90;;;7.40;99.90;;;;;;12608849;28;20101;-37
2022/02/15 10:56:06;;;;;;;28.70;18.13;;;7.40;99.90;;;;;;12610962;28;20044;-41
2022/02/15 11:02:20;;;;;;;28.00;18.70;;;7.40;99.90;;;;;;12612462;28;20090;-37
2022/02/15 11:08:22;;;;;;;31.30;19.03;;;7.40;99.90;;;;;;12605100;28;20079;-37
2022/02/15 11:14:24;;;;;;;26.23;19.05;;;7.40;99.90;;;;;;12608909;28;20302;-40
2022/02/15 11:20:29;;;;;;;27.38;18.15;;;7.40;99.90;;;;;;12603140;28;20093;-37
2022/02/15 11:26:34;;;;;;;24.88;17.25;;;7.40;99.90;;;;;;12610762;28;20506;-37
2022/02/15 11:32:42;;;;;;;;;;;7.40;99.90;;;;;;12608780;28;20057;-39
2022/02/15 11:38:58;;;;;;;26.30;18.08;;;7.60;99.90;;;;;;12610007;28;20243;-37
2022/02/15 11:45:01;;;;;;;25.45;16.65;;;7.70;99.90;;;;;;12610189;28;20044;-43
2022/02/15 11:51:04;;;;;;;24.58;16.83;;;7.80;99.90;;;;;;12601618;28;20139;-37
2022/02/15 11:57:09;;;;;;;23.25;15.98;;;7.90;99.90;;;;;;12607627;28;20545;-40
2022/02/15 12:03:16;;;;;;;22.90;15.82;;;8.00;99.90;;;;;;12607120;28;20052;-41
2022/02/15 12:09:27;;;;;;;23.05;14.40;;;7.90;99.90;;;;;;12607145;28;20079;-37
2022/02/15 12:15:34;;;;;;;21.13;14.75;;;8.10;99.90;;;;;;12607011;28;20139;-40
2022/02/15 12:21:40;;;;;;;26.00;16.13;;;8.00;99.90;;;;;;12606835;28;20139;-37
2022/02/15 12:27:45;;;;;;;22.50;17.30;;;8.00;99.90;;;;;;12609440;28;20055;-46
2022/02/15 12:33:47;;;;;;;24.98;17.15;;;8.10;99.90;;;;;;12605041;28;20060;-40
2022/02/15 12:39:54;;;;;;;29.20;15.48;;;7.90;99.90;;;;;;12608137;28;20059;-40
2022/02/15 12:45:56;;;;;;;23.17;15.75;;;7.80;99.90;;;;;;12606528;28;20873;-37
2022/02/15 12:51:58;;;;;;;20.92;14.25;;;7.60;99.90;;;;;;12606461;28;20135;-40
2022/02/15 12:58:02;;;;;;;21.80;14.43;;;7.50;99.90;;;;;;12603692;28;20071;-40
2022/02/15 13:04:06;;;;;;;18.92;12.68;;;7.60;99.90;;;;;;12611502;28;20056;-40
2022/02/15 13:10:09;;;;;;;;;;;7.50;99.90;;;;;;12608991;28;20040;-40
2022/02/15 13:16:12;;;;;;;19.17;12.77;;;7.80;99.90;;;;;;12616746;28;19928;-38
2022/02/15 13:22:16;;;;;;;22.52;13.07;;;7.80;99.90;;;;;;12612288;28;20040;-40
2022/02/15 13:28:20;;;;;;;14.63;10.93;;;7.90;99.90;;;;;;12613502;28;20044;-40
2022/02/15 13:34:32;;;;;;;16.38;11.68;;;8.10;99.90;;;;;;12614024;28;20093;-41
2022/02/15 13:40:36;;;;;;;22.38;13.40;;;8.00;99.90;;;;;;12611428;28;20093;-37
2022/02/15 13:46:40;;;;;;;20.67;15.07;;;7.80;99.90;;;;;;12611251;28;20040;-37
2022/02/15 13:52:46;;;;;;;24.58;16.63;;;7.70;99.90;;;;;;12579643;28;20059;-40
2022/02/15 13:58:49;;;;;;;22.58;16.92;;;7.70;99.90;;;;;;12613269;28;20048;-40
2022/02/15 14:04:54;;;;;;;24.77;16.40;;;7.60;99.90;;;;;;12616626;28;20044;-37
2022/02/15 14:10:58;;;;;;;21.45;15.70;;;7.60;99.90;;;;;;12615020;28;20499;-40
2022/02/15 14:23:23;;;;;;;17.38;11.82;;;7.90;99.90;;;;;;12612414;28;20134;-40
2022/02/15 14:29:25;;;;;;;13.30;8.40;;;7.90;99.90;;;;;;12606488;28;20100;-40
2022/02/15 14:35:27;;;;;;;12.85;8.73;;;7.70;99.90;;;;;;12609003;28;20044;-41
2022/02/15 14:41:30;;;;;;;14.43;9.05;;;7.60;99.90;;;;;;12605120;28;20097;-37
2022/02/15 14:47:32;;;;;;;13.35;9.55;;;7.60;99.90;;;;;;12567131;28;20126;-40
2022/02/15 14:53:34;;;;;;;14.13;8.15;;;7.50;99.90;;;;;;12605107;28;20051;-41
2022/02/15 14:59:39;;;;;;;11.52;7.75;;;7.60;99.90;;;;;;12608945;28;20048;-39
2022/02/15 15:05:44;;;;;;;13.80;8.50;;;7.50;99.90;;;;;;12608577;28;20044;-37
2022/02/15 15:11:46;;;;;;;11.18;6.28;;;7.50;99.90;;;;;;12609575;28;20056;-40
2022/02/15 15:17:48;;;;;;;9.13;5.30;;;7.40;99.90;;;;;;12607037;28;20087;-37
2022/02/15 15:23:50;;;;;;;11.15;5.93;;;7.30;99.90;;;;;;12609075;28;20559;-40
2022/02/15 15:29:52;;;;;;;6.53;4.28;;;7.40;99.90;;;;;;12599310;28;20046;-41
2022/02/15 15:35:54;;;;;;;9.25;3.25;;;7.40;99.90;;;;;;12607509;28;20087;-41
2022/02/15 15:41:57;;;;;;;4.57;2.05;;;7.30;99.90;;;;;;12598782;28;20097;-37
2022/02/15 15:47:59;;;;;;;6.82;2.63;;;7.30;99.90;;;;;;12609898;28;20052;-40
2022/02/15 15:54:02;;;;;;;8.98;2.55;;;7.30;99.90;;;;;;12602620;28;20089;-37
2022/02/15 16:00:05;;;;;;;6.57;3.20;;;7.20;99.90;;;;;;12601813;28;20174;-40
2022/02/15 16:06:30;;;;;;;5.65;2.22;;;7.00;99.90;;;;;;12585166;28;20052;-41
2022/02/15 16:12:32;;;;;;;6.78;2.38;;;6.90;99.90;;;;;;12596440;28;20427;-40
2022/02/15 16:18:35;;;;;;;6.18;2.30;;;6.80;99.90;;;;;;12609304;28;20055;-37
2022/02/15 16:24:38;;;;;;;5.72;2.60;;;6.80;99.90;;;;;;12606167;28;20048;-40
2022/02/15 16:30:53;;;;;;;6.15;2.55;;;6.60;99.90;;;;;;12598975;28;20831;-37
2022/02/15 16:36:57;;;;;;;5.85;2.50;;;6.50;99.90;;;;;;12604785;28;20048;-40
2022/02/15 16:42:59;;;;;;;4.10;2.30;;;6.50;99.90;;;;;;12589726;28;20081;-37
2022/02/15 16:49:02;;;;;;;7.28;2.22;;;6.50;99.90;;;;;;12609908;28;20047;-41
2022/02/15 16:55:05;;;;;;;5.88;2.00;;;6.50;99.90;;;;;;12606174;28;20044;-40
2022/02/15 17:01:08;;;;;;;6.82;2.50;;;6.50;99.90;;;;;;12611034;28;20044;-40
2022/02/15 17:07:10;;;;;;;11.90;2.50;;;6.30;99.90;;;;;;12612711;28;20043;-41
2022/02/15 17:13:14;;;;;;;3.53;1.60;;;6.30;99.90;;;;;;12616364;28;20094;-41
2022/02/15 17:19:16;;;;;;;5.47;1.92;;;6.30;99.90;;;;;;12615934;28;20051;-39
2022/02/15 17:25:20;;;;;;;4.32;1.40;;;6.30;99.90;;;;;;12616880;28;20504;-37
2022/02/15 17:31:22;;;;;;;4.70;1.90;;;6.20;99.90;;;;;;12612603;28;20139;-40
2022/02/15 17:37:24;;;;;;;8.35;1.83;;;6.30;99.90;;;;;;12616159;28;20649;-41
2022/02/15 17:43:26;;;;;;;6.50;1.80;;;6.30;99.90;;;;;;12615194;28;20058;-37
2022/02/15 17:49:28;;;;;;;4.82;2.00;;;6.30;99.90;;;;;;12619652;28;20091;-39
2022/02/15 17:55:31;;;;;;;4.88;2.10;;;6.30;99.90;;;;;;12609574;28;20059;-40
2022/02/15 18:01:37;;;;;;;4.90;1.90;;;6.30;99.90;;;;;;12606283;28;20044;-40
2022/02/15 18:07:38;;;;;;;5.47;1.80;;;6.30;99.90;;;;;;12615957;28;20117;-39
2022/02/15 18:13:42;;;;;;;5.35;1.65;;;6.30;99.90;;;;;;12607569;28;20052;-36
2022/02/15 18:19:46;;;;;;;5.03;1.40;;;6.40;99.90;;;;;;12618002;28;20175;-36
2022/02/15 18:25:49;;;;;;;6.40;1.65;;;6.40;99.90;;;;;;12612326;28;20109;-37
2022/02/15 18:32:03;;;;;;;5.00;1.65;;;6.50;99.90;;;;;;12603249;28;20078;-36
2022/02/15 18:38:05;;;;;;;5.20;1.33;;;6.50;99.90;;;;;;12608771;28;20079;-36
2022/02/15 18:44:07;;;;;;;5.38;1.30;;;6.60;99.90;;;;;;12609236;28;20048;-40
2022/02/15 18:50:09;;;;;;;4.07;1.05;;;6.60;99.90;;;;;;12602591;28;20151;-36
2022/02/15 18:56:11;;;;;;;5.05;1.02;;;6.60;99.90;;;;;;12607687;28;20135;-40
2022/02/15 19:02:13;;;;;;;2.83;1.10;;;6.70;99.90;;;;;;12611498;28;20052;-39
2022/02/15 19:08:15;;;;;;;3.53;1.08;;;6.70;99.90;;;;;;12611705;28;20055;-36
2022/02/15 19:14:20;;;;;;;5.05;0.88;;;6.70;99.90;;;;;;12608264;28;20080;-36
2022/02/15 19:20:21;;;;;;;3.15;0.80;;;6.70;99.90;;;;;;12610859;28;20139;-40
2022/02/15 19:26:25;;;;;;;1.48;0.70;;;6.80;99.90;;;;;;12613945;28;20864;-40
2022/02/15 19:32:27;;;;;;;4.45;0.88;;;6.90;99.90;;;;;;12612655;28;20409;-42
2022/02/15 19:38:29;;;;;;;3.63;0.90;;;6.90;99.90;;;;;;12608581;28;20117;-37
2022/02/15 19:44:31;;;;;;;5.60;0.95;;;6.90;99.90;;;;;;12609908;28;20048;-36
2022/02/15 19:50:33;;;;;;;3.42;0.80;;;6.90;99.90;;;;;;12608071;28;20481;-40
2022/02/15 19:56:36;;;;;;;3.45;0.90;;;6.90;99.90;;;;;;12607798;28;20158;-36
2022/02/15 20:02:39;;;;;;;5.20;1.23;;;6.80;99.90;;;;;;12610797;28;20112;-36
2022/02/15 20:08:42;;;;;;;3.08;0.90;;;6.60;99.90;;;;;;12611206;28;20048;-36
2022/02/15 20:14:45;;;;;;;5.75;1.30;;;6.40;99.90;;;;;;12590976;28;20112;-36
2022/02/15 20:20:48;;;;;;;4.65;1.30;;;6.40;99.90;;;;;;12607069;28;20051;-40
2022/02/15 20:26:51;;;;;;;5.88;1.13;;;6.30;99.90;;;;;;12594125;28;20135;-36
2022/02/15 20:32:53;;;;;;;5.03;0.98;;;6.30;99.90;;;;;;12612845;28;20056;-36
2022/02/15 20:38:55;;;;;;;5.40;1.42;;;6.30;99.90;;;;;;12611023;28;20127;-36
2022/02/15 20:44:58;;;;;;;5.40;1.40;;;6.20;99.90;;;;;;12589051;28;20463;-40
2022/02/15 20:51:00;;;;;;;4.68;1.35;;;6.30;99.90;;;;;;12606641;28;20105;-39
2022/02/15 20:57:02;;;;;;;3.45;1.60;;;6.30;99.90;;;;;;12609660;28;20147;-36
2022/02/15 21:03:04;;;;;;;4.45;1.50;;;6.20;99.90;;;;;;12608696;28;20087;-40
2022/02/15 21:09:09;;;;;;;6.03;2.03;;;6.20;99.90;;;;;;12592683;28;20059;-36
2022/02/15 21:15:11;;;;;;;3.72;1.70;;;6.10;99.90;;;;;;12613725;28;20055;-36
2022/02/15 21:21:13;;;;;;;4.97;1.80;;;6.10;99.90;;;;;;12611891;28;20170;-36
2022/02/15 21:27:15;;;;;;;6.53;1.88;;;6.00;99.90;;;;;;12615311;28;20711;-36
2022/02/15 21:33:17;;;;;;;5.40;1.60;;;6.00;99.90;;;;;;12617764;28;20052;-39
2022/02/15 21:39:20;;;;;;;6.95;1.90;;;5.90;99.90;;;;;;12620906;28;20063;-36
2022/02/15 21:45:22;;;;;;;3.65;1.65;;;5.80;99.90;;;;;;12620381;28;20480;-36
2022/02/15 21:51:28;;;;;;;6.22;1.80;;;5.80;99.90;;;;;;12616368;28;20043;-39
2022/02/15 21:57:29;;;;;;;5.53;1.73;;;5.80;99.90;;;;;;12614070;28;20048;-40
2022/02/15 22:03:32;;;;;;;7.40;2.42;;;5.70;99.90;;;;;;12617113;28;20043;-36
2022/02/15 22:09:34;;;;;;;6.38;2.00;;;5.70;99.90;;;;;;12614606;28;20462;-36
2022/02/15 22:15:36;;;;;;;6.03;2.13;;;5.70;99.90;;;;;;12616039;28;20096;-41
2022/02/15 22:21:38;;;;;;;5.32;2.55;;;5.60;99.90;;;;;;12613305;28;20040;-40
2022/02/15 22:27:42;;;;;;;6.45;2.58;;;5.60;99.90;;;;;;12616478;28;20044;-40
2022/02/15 22:33:44;;;;;;;7.40;2.50;;;5.60;99.90;;;;;;12615926;28;20048;-36
2022/02/15 22:39:46;;;;;;;5.57;2.47;;;5.50;99.90;;;;;;12617852;28;20058;-39
2022/02/15 22:45:49;;;;;;;6.35;2.53;;;5.60;99.90;;;;;;12614383;28;20055;-36
2022/02/15 22:51:50;;;;;;;5.00;2.50;;;5.60;99.90;;;;;;12613828;28;20043;-39
2022/02/15 22:57:54;;;;;;;4.85;2.75;;;5.60;99.90;;;;;;12617251;28;20059;-39
2022/02/15 23:03:57;;;;;;;4.50;2.67;;;5.60;99.90;;;;;;12618579;28;20083;-36
2022/02/15 23:22:40;;;;;;;5.75;2.65;;;5.60;99.90;;;;;;12614351;28;20524;-36
2022/02/15 23:28:42;;;;;;;10.00;3.33;;;5.60;99.90;;;;;;12611408;28;20484;-36
2022/02/15 23:34:44;;;;;;;5.57;2.88;;;5.60;99.90;;;;;;12611950;28;20083;-36
2022/02/15 23:40:46;;;;;;;7.28;2.70;;;5.70;99.90;;;;;;12613519;28;20048;-39
2022/02/15 23:46:48;;;;;;;5.80;2.90;;;5.70;99.90;;;;;;12613301;28;20181;-39
2022/02/15 23:52:50;;;;;;;4.22;2.85;;;5.70;99.90;;;;;;12611395;28;20055;-36
2022/02/15 23:58:55;;;;;;;5.90;2.63;;;5.70;99.90;;;;;;12614142;28;20135;-39
